createdAt,value
2022-12-15T00:02:19.666Z,22.20
2022-12-15T00:05:05.514Z,24.33
2022-12-15T00:07:51.653Z,26.80
2022-12-15T00:10:37.760Z,25.42
2022-12-15T00:13:29.881Z,23.27
2022-12-15T00:16:15.816Z,25.65
2022-12-15T00:19:01.196Z,18.30
2022-12-15T00:21:46.531Z,22.55
2022-12-15T00:24:34.455Z,25.27
2022-12-15T00:27:20.112Z,26.95
2022-12-15T00:30:05.500Z,28.40
2022-12-15T00:32:51.009Z,29.35
2022-12-15T00:35:36.697Z,34.05
2022-12-15T00:38:31.204Z,29.10
2022-12-15T00:41:00.650Z,28.48
2022-12-15T00:43:29.393Z,24.05
2022-12-15T00:46:18.223Z,22.35
2022-12-15T00:48:45.416Z,30.98
2022-12-15T00:51:12.575Z,27.75
2022-12-15T00:53:58.691Z,31.98
2022-12-15T00:56:46.669Z,33.28
2022-12-15T00:59:32.022Z,33.75
2022-12-15T01:02:17.665Z,31.00
2022-12-15T01:05:03.455Z,31.25
2022-12-15T01:07:49.610Z,31.88
2022-12-15T01:10:36.209Z,39.70
2022-12-15T01:13:22.839Z,36.83
2022-12-15T01:16:10.810Z,35.22
2022-12-15T01:18:56.382Z,33.47
2022-12-15T01:21:25.710Z,35.60
2022-12-15T01:23:53.281Z,30.98
2022-12-15T01:26:20.531Z,35.47
2022-12-15T01:28:47.279Z,33.30
2022-12-15T01:31:14.387Z,35.22
2022-12-15T01:33:42.762Z,33.17
2022-12-15T01:36:10.648Z,35.88
2022-12-15T01:38:37.961Z,34.67
2022-12-15T01:41:07.937Z,35.35
2022-12-15T01:43:38.092Z,33.35
2022-12-15T01:46:09.192Z,33.45
2022-12-15T01:48:39.370Z,34.97
2022-12-15T01:51:23.611Z,31.95
2022-12-15T01:54:19.845Z,29.00
2022-12-15T01:56:54.982Z,30.27
2022-12-15T01:59:28.800Z,28.20
2022-12-15T02:01:55.627Z,29.27
2022-12-15T02:04:23.732Z,27.42
2022-12-15T02:06:53.111Z,29.65
2022-12-15T02:09:24.406Z,26.00
2022-12-15T02:12:06.210Z,27.60
2022-12-15T02:14:47.183Z,27.52
2022-12-15T02:17:37.158Z,26.87
2022-12-15T02:20:42.471Z,26.92
2022-12-15T02:23:32.360Z,27.20
2022-12-15T02:26:28.903Z,30.73
2022-12-15T02:29:31.807Z,24.92
2022-12-15T02:32:09.501Z,26.58
2022-12-15T02:34:44.790Z,29.42
2022-12-15T02:37:16.304Z,32.15
2022-12-15T02:39:43.309Z,30.60
2022-12-15T02:42:11.259Z,30.98
2022-12-15T02:44:59.436Z,30.50
2022-12-15T02:47:31.913Z,35.40
2022-12-15T02:50:35.305Z,35.63
2022-12-15T02:53:26.272Z,33.47
2022-12-15T02:55:59.195Z,32.83
2022-12-15T02:58:40.282Z,34.22
2022-12-15T03:01:24.982Z,30.00
2022-12-15T03:03:52.728Z,28.98
2022-12-15T03:06:20.415Z,25.83
2022-12-15T03:08:47.136Z,28.58
2022-12-15T03:11:13.810Z,28.40
2022-12-15T03:13:40.493Z,33.65
2022-12-15T03:16:07.514Z,31.13
2022-12-15T03:18:34.243Z,32.92
2022-12-15T03:21:01.023Z,28.63
2022-12-15T03:23:30.626Z,31.92
2022-12-15T03:25:57.747Z,35.08
2022-12-15T03:28:26.845Z,33.75
2022-12-15T03:30:56.775Z,32.05
2022-12-15T03:33:23.529Z,31.05
2022-12-15T03:35:51.243Z,32.20
2022-12-15T03:38:18.517Z,30.50
2022-12-15T03:40:45.287Z,32.28
2022-12-15T03:43:12.088Z,31.45
2022-12-15T03:45:38.904Z,35.17
2022-12-15T03:48:05.791Z,26.77
2022-12-15T03:50:32.665Z,29.50
2022-12-15T03:53:01.886Z,30.48
2022-12-15T03:55:29.170Z,28.67
2022-12-15T03:57:56.632Z,28.35
2022-12-15T04:00:26.450Z,23.55
2022-12-15T04:02:53.703Z,27.25
2022-12-15T04:05:27.257Z,26.52
2022-12-15T04:07:55.575Z,26.92
2022-12-15T04:10:26.254Z,26.73
2022-12-15T04:12:58.582Z,33.35
2022-12-15T04:15:26.032Z,26.13
2022-12-15T04:17:52.839Z,29.17
2022-12-15T04:20:20.221Z,26.25
2022-12-15T04:22:50.744Z,22.27
2022-12-15T04:25:39.782Z,27.27
2022-12-15T04:28:25.937Z,25.42
2022-12-15T04:31:19.568Z,28.35
2022-12-15T04:34:09.183Z,24.05
2022-12-15T04:36:57.157Z,25.58
2022-12-15T04:39:42.697Z,22.67
2022-12-15T04:42:28.385Z,25.67
2022-12-15T04:45:20.758Z,24.13
2022-12-15T04:48:06.941Z,20.17
2022-12-15T04:50:52.458Z,22.70
2022-12-15T04:53:39.000Z,20.33
2022-12-15T04:56:29.547Z,23.42
2022-12-15T04:59:14.922Z,20.38
2022-12-15T05:02:00.536Z,24.05
2022-12-15T05:04:48.391Z,21.65
2022-12-15T05:07:34.330Z,20.20
2022-12-15T05:10:19.986Z,23.45
2022-12-15T05:13:05.327Z,24.15
2022-12-15T05:15:51.857Z,24.20
2022-12-15T05:18:37.621Z,30.55
2022-12-15T05:21:23.002Z,27.42
2022-12-15T05:24:08.371Z,26.40
2022-12-15T05:26:53.941Z,25.38
2022-12-15T05:29:40.113Z,25.92
2022-12-15T05:32:08.198Z,28.90
2022-12-15T05:34:36.541Z,23.10
2022-12-15T05:37:05.082Z,22.90
2022-12-15T05:39:31.778Z,22.88
2022-12-15T05:41:58.469Z,23.70
2022-12-15T05:44:26.033Z,21.45
2022-12-15T05:46:53.338Z,23.30
2022-12-15T05:49:20.672Z,25.23
2022-12-15T05:51:48.126Z,23.52
2022-12-15T05:54:17.304Z,25.17
2022-12-15T05:56:50.523Z,25.00
2022-12-15T05:59:18.991Z,23.15
2022-12-15T06:01:46.123Z,22.55
2022-12-15T06:04:13.518Z,19.58
2022-12-15T06:06:41.402Z,20.17
2022-12-15T06:09:10.939Z,24.58
2022-12-15T06:11:37.749Z,20.83
2022-12-15T06:14:04.706Z,23.23
2022-12-15T06:16:31.939Z,24.85
2022-12-15T06:19:03.288Z,22.08
2022-12-15T06:21:33.103Z,26.83
2022-12-15T06:24:00.852Z,21.48
2022-12-15T06:26:28.492Z,20.40
2022-12-15T06:28:57.291Z,19.73
2022-12-15T06:31:25.515Z,23.20
2022-12-15T06:34:01.066Z,21.95
2022-12-15T06:36:30.661Z,22.05
2022-12-15T06:39:03.206Z,22.73
2022-12-15T06:41:30.925Z,25.92
2022-12-15T06:43:58.395Z,23.65
2022-12-15T06:46:26.473Z,20.33
2022-12-15T06:48:53.613Z,21.70
2022-12-15T06:51:20.549Z,25.05
2022-12-15T06:53:54.053Z,20.92
2022-12-15T06:56:32.506Z,21.73
2022-12-15T06:59:00.003Z,21.00
2022-12-15T07:01:26.803Z,20.70
2022-12-15T07:03:54.518Z,22.08
2022-12-15T07:06:21.887Z,21.70
2022-12-15T07:08:52.511Z,20.40
2022-12-15T07:11:21.005Z,21.92
2022-12-15T07:13:52.198Z,23.48
2022-12-15T07:16:19.943Z,21.10
2022-12-15T07:18:46.801Z,18.65
2022-12-15T07:21:16.026Z,21.63
2022-12-15T07:24:01.355Z,19.23
2022-12-15T07:26:31.000Z,19.27
2022-12-15T07:28:57.688Z,16.13
2022-12-15T07:31:24.468Z,18.38
2022-12-15T07:33:52.555Z,17.77
2022-12-15T07:36:22.167Z,17.30
2022-12-15T07:38:51.615Z,16.20
2022-12-15T07:41:20.235Z,16.05
2022-12-15T07:43:47.654Z,17.08
2022-12-15T07:46:15.548Z,19.45
2022-12-15T07:48:42.332Z,16.65
2022-12-15T07:51:17.194Z,21.83
2022-12-15T07:53:46.640Z,17.40
2022-12-15T07:56:13.787Z,20.58
2022-12-15T07:58:40.511Z,22.77
2022-12-15T08:01:10.445Z,22.00
2022-12-15T08:03:38.769Z,19.45
2022-12-15T08:06:08.044Z,24.77
2022-12-15T08:08:35.856Z,27.70
2022-12-15T08:11:08.061Z,27.40
2022-12-15T08:16:22.846Z,23.58
2022-12-15T08:18:49.618Z,27.27
2022-12-15T08:21:16.418Z,29.15
2022-12-15T08:23:43.119Z,22.23
2022-12-15T08:26:15.456Z,23.45
2022-12-15T08:28:43.216Z,25.30
2022-12-15T08:31:16.699Z,24.35
2022-12-15T08:33:44.724Z,26.90
2022-12-15T08:36:13.719Z,29.77
2022-12-15T08:38:41.883Z,27.45
2022-12-15T08:41:10.840Z,25.60
2022-12-15T08:43:44.051Z,25.00
2022-12-15T08:46:14.979Z,29.65
2022-12-15T08:48:41.993Z,27.55
2022-12-15T08:51:09.743Z,25.35
2022-12-15T08:53:36.920Z,24.65
2022-12-15T08:56:06.093Z,22.65
2022-12-15T08:58:33.336Z,25.13
2022-12-15T09:01:19.024Z,23.40
2022-12-15T09:03:50.350Z,22.90
2022-12-15T09:06:20.137Z,22.38
2022-12-15T09:08:50.097Z,21.08
2022-12-15T09:11:17.901Z,26.45
2022-12-15T09:13:46.802Z,26.42
2022-12-15T09:16:16.758Z,22.67
2022-12-15T09:18:45.888Z,23.20
2022-12-15T09:21:15.835Z,22.20
2022-12-15T09:23:43.162Z,24.17
2022-12-15T09:26:12.839Z,19.70
2022-12-15T09:28:42.686Z,25.80
2022-12-15T09:31:21.917Z,24.95
2022-12-15T09:33:51.054Z,31.23
2022-12-15T09:36:18.133Z,24.85
2022-12-15T09:38:45.238Z,21.90
2022-12-15T09:41:23.382Z,24.08
2022-12-15T09:43:58.738Z,19.00
2022-12-15T09:47:05.795Z,20.90
2022-12-15T09:49:55.664Z,13.80
2022-12-15T09:52:30.142Z,14.93
2022-12-15T09:54:58.713Z,15.15
2022-12-15T09:57:45.013Z,16.30
2022-12-15T10:00:21.274Z,14.25
2022-12-15T10:03:16.275Z,14.00
2022-12-15T10:06:07.259Z,17.58
2022-12-15T10:08:33.915Z,15.05
2022-12-15T10:11:18.519Z,19.67
2022-12-15T10:14:14.247Z,20.33
2022-12-15T10:16:53.205Z,15.82
2022-12-15T10:19:36.796Z,18.88
2022-12-15T10:22:10.425Z,19.42
2022-12-15T10:25:08.719Z,19.58
2022-12-15T10:27:47.371Z,23.20
2022-12-15T10:30:16.623Z,23.23
2022-12-15T10:32:58.788Z,18.52
2022-12-15T10:35:35.085Z,20.30
2022-12-15T10:38:07.023Z,21.67
2022-12-15T10:40:50.256Z,22.83
2022-12-15T10:43:38.975Z,22.23
2022-12-15T10:46:19.301Z,22.58
2022-12-15T10:49:08.293Z,27.98
2022-12-15T10:51:44.315Z,25.90
2022-12-15T10:54:16.562Z,63.83
2022-12-15T10:56:46.260Z,42.83
2022-12-15T10:59:23.029Z,33.22
2022-12-15T11:01:51.069Z,25.05
2022-12-15T11:04:30.609Z,25.63
2022-12-15T11:07:03.146Z,25.55
2022-12-15T11:09:35.000Z,22.42
2022-12-15T11:14:52.956Z,26.65
2022-12-15T11:17:21.860Z,17.88
2022-12-15T11:20:03.134Z,17.08
2022-12-15T11:22:51.381Z,11.55
2022-12-15T11:25:42.887Z,14.93
2022-12-15T11:28:28.581Z,13.35
2022-12-15T11:31:16.052Z,18.13
2022-12-15T11:33:42.729Z,16.85
2022-12-15T11:36:10.142Z,13.23
2022-12-15T11:39:13.568Z,14.15
2022-12-15T11:42:00.106Z,15.27
2022-12-15T11:44:51.317Z,17.48
2022-12-15T11:47:35.990Z,13.50
2022-12-15T11:50:17.270Z,19.33
2022-12-15T11:53:03.805Z,12.00
2022-12-15T11:55:48.709Z,16.58
2022-12-15T11:58:39.784Z,16.35
2022-12-15T12:01:27.578Z,9.70
2022-12-15T12:04:11.453Z,8.25
2022-12-15T12:07:18.149Z,9.82
2022-12-15T12:10:02.811Z,19.23
2022-12-15T12:12:45.301Z,7.45
2022-12-15T12:15:49.135Z,8.77
2022-12-15T12:18:25.514Z,10.10
2022-12-15T12:21:15.435Z,11.82
2022-12-15T12:24:02.356Z,9.90
2022-12-15T12:26:38.157Z,8.40
2022-12-15T12:29:26.331Z,7.28
2022-12-15T12:32:32.093Z,10.65
2022-12-15T12:35:31.523Z,8.02
2022-12-15T12:38:04.775Z,9.57
2022-12-15T12:40:46.487Z,6.22
2022-12-15T12:43:30.591Z,5.63
2022-12-15T12:46:10.151Z,11.32
2022-12-15T12:48:56.112Z,8.75
2022-12-15T12:51:33.020Z,6.88
2022-12-15T12:54:00.966Z,7.70
2022-12-15T12:56:37.015Z,9.98
2022-12-15T12:59:25.271Z,7.95
2022-12-15T13:01:52.115Z,7.45
2022-12-15T13:05:11.710Z,4.38
2022-12-15T13:07:44.338Z,4.75
2022-12-15T13:10:21.235Z,11.00
2022-12-15T13:12:51.955Z,7.72
2022-12-15T13:15:30.469Z,8.70
2022-12-15T13:18:07.077Z,5.47
2022-12-15T13:20:39.987Z,8.20
2022-12-15T13:23:21.833Z,5.20
2022-12-15T13:26:00.372Z,5.03
2022-12-15T13:28:44.365Z,10.70
2022-12-15T13:31:27.643Z,8.50
2022-12-15T13:34:00.996Z,10.13
2022-12-15T13:36:39.862Z,7.53
2022-12-15T13:39:12.347Z,5.07
2022-12-15T13:41:54.543Z,11.82
2022-12-15T13:44:35.556Z,5.93
2022-12-15T13:47:16.499Z,8.40
2022-12-15T13:50:02.086Z,5.57
2022-12-15T13:56:04.117Z,4.85
2022-12-15T13:58:39.367Z,4.07
2022-12-15T14:01:28.666Z,6.93
2022-12-15T14:04:04.631Z,2.25
2022-12-15T14:06:38.575Z,5.20
2022-12-15T14:09:06.467Z,8.35
2022-12-15T14:11:52.576Z,5.95
2022-12-15T14:14:29.914Z,6.68
2022-12-15T14:17:00.499Z,7.93
2022-12-15T14:19:42.697Z,8.02
2022-12-15T14:22:31.971Z,5.40
2022-12-15T14:25:03.396Z,5.45
2022-12-15T14:27:32.949Z,4.03
2022-12-15T14:30:14.757Z,8.88
2022-12-15T14:32:43.659Z,5.28
2022-12-15T14:35:36.036Z,5.13
2022-12-15T14:38:06.344Z,5.00
2022-12-15T14:40:37.591Z,5.25
2022-12-15T14:43:06.848Z,6.72
2022-12-15T14:45:34.054Z,4.68
2022-12-15T14:50:58.124Z,6.38
2022-12-15T14:53:31.980Z,11.23
2022-12-15T14:56:27.609Z,10.52
2022-12-15T14:59:04.175Z,12.07
2022-12-15T15:01:41.653Z,5.40
2022-12-15T15:04:29.423Z,9.43
2022-12-15T15:06:58.433Z,5.93
2022-12-15T15:09:54.883Z,9.70
2022-12-15T15:12:24.656Z,7.20
2022-12-15T15:15:01.243Z,4.72
2022-12-15T15:17:33.559Z,8.02
2022-12-15T15:20:07.773Z,7.82
2022-12-15T15:22:45.717Z,7.32
2022-12-15T15:25:39.962Z,8.27
2022-12-15T15:28:21.444Z,7.25
2022-12-15T15:30:56.516Z,7.40
2022-12-15T15:33:24.899Z,10.30
2022-12-15T15:35:54.940Z,7.05
2022-12-15T15:38:35.429Z,9.52
2022-12-15T15:41:19.614Z,11.57
2022-12-15T15:43:46.708Z,9.48
2022-12-15T15:46:19.791Z,8.40
2022-12-15T15:48:50.338Z,9.88
2022-12-15T15:51:17.630Z,11.02
2022-12-15T15:53:45.050Z,13.32
2022-12-15T15:56:14.764Z,8.10
2022-12-15T15:58:43.705Z,7.05
2022-12-15T16:01:13.343Z,6.80
2022-12-15T16:03:41.357Z,7.43
2022-12-15T16:06:17.191Z,11.35
2022-12-15T16:08:45.835Z,12.30
2022-12-15T16:11:12.532Z,12.32
2022-12-15T16:13:39.463Z,7.82
2022-12-15T16:16:07.135Z,7.95
2022-12-15T16:18:35.288Z,8.32
2022-12-15T16:21:02.245Z,9.70
2022-12-15T16:23:29.905Z,10.65
2022-12-15T16:25:59.137Z,8.57
2022-12-15T16:28:29.234Z,12.48
2022-12-15T16:30:58.768Z,9.90
2022-12-15T16:33:25.628Z,9.85
2022-12-15T16:35:52.579Z,13.23
2022-12-15T16:38:27.927Z,12.43
2022-12-15T16:40:55.775Z,14.35
2022-12-15T16:43:32.901Z,10.73
2022-12-15T16:46:03.291Z,13.48
2022-12-15T16:48:30.365Z,10.43
2022-12-15T16:50:59.246Z,15.32
2022-12-15T16:53:32.373Z,12.38
2022-12-15T16:56:02.142Z,10.82
2022-12-15T16:58:30.041Z,12.95
2022-12-15T17:00:57.142Z,10.50
2022-12-15T17:03:27.621Z,14.88
2022-12-15T17:06:01.094Z,12.73
2022-12-15T17:08:35.057Z,11.80
2022-12-15T17:11:02.215Z,14.35
2022-12-15T17:13:43.707Z,8.80
2022-12-15T17:16:15.753Z,13.13
2022-12-15T17:18:44.322Z,14.60
2022-12-15T17:21:20.692Z,14.15
2022-12-15T17:23:53.380Z,11.82
2022-12-15T17:26:31.742Z,15.32
2022-12-15T17:29:16.430Z,17.02
2022-12-15T17:31:43.185Z,13.35
2022-12-15T17:34:23.774Z,15.45
2022-12-15T17:36:51.310Z,52.50
2022-12-15T17:39:20.258Z,13.77
2022-12-15T17:42:04.361Z,14.70
2022-12-15T17:44:36.168Z,12.38
2022-12-15T17:47:06.514Z,10.50
2022-12-15T17:49:36.378Z,9.50
2022-12-15T17:52:28.090Z,8.70
2022-12-15T17:54:55.737Z,11.65
2022-12-15T17:57:22.699Z,7.53
2022-12-15T17:59:49.355Z,8.15
2022-12-15T18:02:16.205Z,7.80
2022-12-15T18:04:43.559Z,9.93
2022-12-15T18:07:21.873Z,7.53
2022-12-15T18:09:50.079Z,10.88
2022-12-15T18:12:22.265Z,9.73
2022-12-15T18:14:49.539Z,9.88
2022-12-15T18:17:16.571Z,9.15
2022-12-15T18:19:43.277Z,6.80
2022-12-15T18:22:21.971Z,8.48
2022-12-15T18:24:50.191Z,13.25
2022-12-15T18:27:28.889Z,10.77
2022-12-15T18:29:56.622Z,8.55
2022-12-15T18:32:25.864Z,11.82
2022-12-15T18:34:53.780Z,16.88
2022-12-15T18:37:22.959Z,10.57
2022-12-15T18:39:50.571Z,12.25
2022-12-15T18:42:19.607Z,13.93
2022-12-15T18:44:48.815Z,14.23
2022-12-15T18:47:21.213Z,12.88
2022-12-15T18:49:48.122Z,10.98
2022-12-15T18:52:19.924Z,11.82
2022-12-15T18:57:33.734Z,9.73
2022-12-15T19:00:24.615Z,13.10
2022-12-15T19:02:52.932Z,16.63
2022-12-15T19:05:32.427Z,20.10
2022-12-15T19:08:27.351Z,20.20
2022-12-15T19:11:03.981Z,25.08
2022-12-15T19:13:34.090Z,16.10
2022-12-15T19:16:02.933Z,18.15
2022-12-15T19:18:48.468Z,15.55
2022-12-15T19:21:49.532Z,16.40
2022-12-15T19:24:46.405Z,13.45
2022-12-15T19:27:14.813Z,14.10
2022-12-15T19:29:42.077Z,14.07
2022-12-15T19:32:09.361Z,10.20
2022-12-15T19:34:36.133Z,12.48
2022-12-15T19:37:06.003Z,8.63
2022-12-15T19:39:35.139Z,13.10
2022-12-15T19:42:06.559Z,10.15
2022-12-15T19:44:36.790Z,10.02
2022-12-15T19:47:11.394Z,12.50
2022-12-15T19:49:38.119Z,11.63
2022-12-15T19:52:05.506Z,14.15
2022-12-15T19:54:32.443Z,10.70
2022-12-15T19:56:59.199Z,10.07
2022-12-15T19:59:28.174Z,9.02
2022-12-15T20:01:55.136Z,9.48
2022-12-15T20:04:24.149Z,17.30
2022-12-15T20:06:51.539Z,11.13
2022-12-15T20:09:19.307Z,10.73
2022-12-15T20:11:46.504Z,9.75
2022-12-15T20:14:15.542Z,15.82
2022-12-15T20:16:42.490Z,12.45
2022-12-15T20:19:09.440Z,17.13
2022-12-15T20:21:38.705Z,13.73
2022-12-15T20:24:10.612Z,20.65
2022-12-15T20:26:39.179Z,15.35
2022-12-15T20:29:24.708Z,13.05
2022-12-15T20:31:53.076Z,15.55
2022-12-15T20:34:19.830Z,13.32
2022-12-15T20:36:47.451Z,10.75
2022-12-15T20:39:25.899Z,13.40
2022-12-15T20:41:53.528Z,16.02
2022-12-15T20:44:20.355Z,15.27
2022-12-15T20:46:47.425Z,15.18
2022-12-15T20:49:17.511Z,19.83
2022-12-15T20:51:44.993Z,17.90
2022-12-15T20:54:23.460Z,12.35
2022-12-15T20:56:50.832Z,13.95
2022-12-15T20:59:18.326Z,13.38
2022-12-15T21:01:45.285Z,19.92
2022-12-15T21:04:25.997Z,24.88
2022-12-15T21:06:54.984Z,19.13
2022-12-15T21:09:25.303Z,19.40
2022-12-15T21:11:54.007Z,20.23
2022-12-15T21:14:23.450Z,15.48
2022-12-15T21:16:50.702Z,24.92
2022-12-15T21:19:21.982Z,22.13
2022-12-15T21:24:25.163Z,22.58
2022-12-15T21:26:52.624Z,17.33
2022-12-15T21:29:22.615Z,17.88
2022-12-15T21:31:49.836Z,16.67
2022-12-15T21:34:16.831Z,16.05
2022-12-15T21:36:46.449Z,12.30
2022-12-15T21:39:21.689Z,14.35
2022-12-15T21:41:48.409Z,13.38
2022-12-15T21:44:18.389Z,18.30
2022-12-15T21:46:45.420Z,16.80
2022-12-15T21:49:20.344Z,15.35
2022-12-15T21:52:02.260Z,14.98
2022-12-15T21:57:00.901Z,17.20
2022-12-15T21:59:30.278Z,16.70
2022-12-15T22:01:57.125Z,16.40
2022-12-15T22:04:31.380Z,12.80
2022-12-15T22:06:58.160Z,14.85
2022-12-15T22:09:24.857Z,16.35
2022-12-15T22:11:54.387Z,14.52
2022-12-15T22:14:26.657Z,13.90
2022-12-15T22:16:56.486Z,11.35
2022-12-15T22:19:23.860Z,9.88
2022-12-15T22:21:51.033Z,13.93
2022-12-15T22:24:19.389Z,14.70
2022-12-15T22:26:47.253Z,14.25
2022-12-15T22:29:20.394Z,16.90
2022-12-15T22:31:48.213Z,15.88
2022-12-15T22:34:17.728Z,14.55
2022-12-15T22:36:45.214Z,12.20
2022-12-15T22:39:12.505Z,11.60
2022-12-15T22:41:44.612Z,17.52
2022-12-15T22:44:26.125Z,11.75
2022-12-15T22:46:56.610Z,14.75
2022-12-15T22:49:28.869Z,8.90
2022-12-15T22:51:55.522Z,9.80
2022-12-15T22:54:25.394Z,10.98
2022-12-15T22:57:03.920Z,8.73
2022-12-15T22:59:41.168Z,11.43
2022-12-15T23:02:09.020Z,11.15
2022-12-15T23:04:36.063Z,7.30
2022-12-15T23:07:05.057Z,11.13
2022-12-15T23:09:31.958Z,8.52
2022-12-15T23:12:01.837Z,8.73
2022-12-15T23:14:47.124Z,10.00
2022-12-15T23:17:14.219Z,7.07
2022-12-15T23:19:45.116Z,8.30
2022-12-15T23:22:12.002Z,9.10
2022-12-15T23:24:39.091Z,8.32
2022-12-15T23:27:09.240Z,11.40
2022-12-15T23:29:38.301Z,11.65
2022-12-15T23:32:05.195Z,8.93
2022-12-15T23:34:31.857Z,10.18
2022-12-15T23:36:58.731Z,5.47
2022-12-15T23:39:25.427Z,9.80
2022-12-15T23:41:52.099Z,8.63
2022-12-15T23:44:18.756Z,9.38
2022-12-15T23:46:46.740Z,7.40
2022-12-15T23:49:13.577Z,7.10
2022-12-15T23:51:40.221Z,10.98
2022-12-15T23:54:07.097Z,11.68
2022-12-15T23:56:33.875Z,11.85
2022-12-15T23:59:00.525Z,10.55
